Time;durP1;ratioP1;P1;durP2;ratioP2;P2;SDS_P1;SDS_P2;PMS_P1;PMS_P2;Temp;Humidity;BMP_temperature;BMP_pressure;BME280_temperature;BME280_humidity;BME280_pressure;Samples;Min_cycle;Max_cycle;Signal;HPM_P1;HPM_P2
2023/07/19 00:00:29;;;;;;;11.70;3.77;;;22.50;65.90;;;;;;5100682;28;21230;-79
2023/07/19 00:02:57;;;;;;;6.53;3.77;;;22.50;65.90;;;;;;5102369;28;20539;-78
2023/07/19 00:05:25;;;;;;;10.00;4.33;;;22.50;65.90;;;;;;5102349;28;20999;-79
2023/07/19 00:07:59;;;;;;;6.47;3.33;;;22.40;65.90;;;;;;5107135;27;21219;-78
2023/07/19 00:10:27;;;;;;;8.60;3.43;;;22.40;66.00;;;;;;5102369;28;20538;-78
2023/07/19 00:12:55;;;;;;;10.67;4.30;;;22.40;66.00;;;;;;5104743;28;20469;-77
2023/07/19 00:15:25;;;;;;;8.23;4.10;;;22.40;66.10;;;;;;5101330;28;20455;-78
2023/07/19 00:17:54;;;;;;;8.17;3.93;;;22.30;66.20;;;;;;5104101;28;21236;-77
2023/07/19 00:20:22;;;;;;;9.20;4.13;;;22.20;66.40;;;;;;5104367;28;20459;-78
2023/07/19 00:22:49;;;;;;;12.80;4.80;;;22.20;66.60;;;;;;5100790;28;20550;-77
2023/07/19 00:25:18;;;;;;;10.27;4.27;;;22.10;66.80;;;;;;5102919;28;21069;-78
2023/07/19 00:27:48;;;;;;;8.43;3.70;;;22.10;66.90;;;;;;5105729;27;20497;-78
2023/07/19 00:30:16;;;;;;;10.20;4.87;;;22.10;67.00;;;;;;5103132;27;20505;-78
2023/07/19 00:32:46;;;;;;;12.80;4.80;;;22.10;67.10;;;;;;5102954;27;20535;-79
2023/07/19 00:35:14;;;;;;;8.50;4.27;;;22.10;67.20;;;;;;5099441;27;20455;-77
2023/07/19 00:37:43;;;;;;;9.87;4.47;;;22.10;67.30;;;;;;5103864;27;20554;-78
2023/07/19 00:40:12;;;;;;;9.67;4.60;;;22.10;67.40;;;;;;5105716;28;20989;-78
2023/07/19 00:42:40;;;;;;;12.27;4.57;;;22.00;67.50;;;;;;5100843;28;20466;-77
2023/07/19 00:45:10;;;;;;;8.67;4.33;;;22.00;67.50;;;;;;5104009;28;20460;-77
2023/07/19 00:47:38;;;;;;;7.93;4.17;;;22.00;67.50;;;;;;5096570;27;20827;-77
2023/07/19 00:50:10;;;;;;;9.20;4.70;;;22.00;67.50;;;;;;5102792;28;20990;-77
2023/07/19 00:52:39;;;;;;;12.93;4.60;;;22.00;67.40;;;;;;5102287;28;21039;-77
2023/07/19 00:55:08;;;;;;;9.53;4.00;;;22.00;67.40;;;;;;5107246;27;20460;-77
2023/07/19 00:57:36;;;;;;;11.77;4.27;;;22.00;67.40;;;;;;5107276;27;20482;-77
2023/07/19 01:00:06;;;;;;;8.20;4.40;;;22.00;67.40;;;;;;5105363;28;20460;-77
2023/07/19 01:02:34;;;;;;;8.80;4.33;;;22.00;67.40;;;;;;5080650;28;20572;-77
2023/07/19 01:05:02;;;;;;;10.13;4.20;;;21.90;67.30;;;;;;5084581;28;20958;-77
2023/07/19 01:07:32;;;;;;;7.70;4.40;;;21.90;67.30;;;;;;5074646;28;20555;-77
2023/07/19 01:10:00;;;;;;;9.20;4.33;;;21.90;67.30;;;;;;5084890;28;20489;-78
2023/07/19 01:12:28;;;;;;;7.93;4.20;;;21.90;67.30;;;;;;5076140;28;20553;-77
2023/07/19 01:14:56;;;;;;;9.30;4.40;;;21.90;67.20;;;;;;5074389;28;20485;-77
2023/07/19 01:17:24;;;;;;;6.93;3.80;;;21.80;67.20;;;;;;5077426;28;20453;-77
2023/07/19 01:19:52;;;;;;;8.50;4.40;;;21.80;67.20;;;;;;5079233;28;20460;-78
2023/07/19 01:22:21;;;;;;;10.07;4.07;;;21.80;67.30;;;;;;5083695;28;20492;-78
2023/07/19 01:25:05;;;;;;;9.33;4.00;;;21.80;67.40;;;;;;5085629;28;20552;-77
2023/07/19 01:27:33;;;;;;;7.07;3.67;;;21.80;67.40;;;;;;5086012;28;20464;-78
2023/07/19 01:30:01;;;;;;;8.87;3.97;;;21.70;67.30;;;;;;5086696;28;20468;-78
2023/07/19 01:32:30;;;;;;;10.70;4.60;;;21.70;67.30;;;;;;5080165;28;20563;-77
2023/07/19 01:34:59;;;;;;;10.40;4.43;;;21.70;67.30;;;;;;5090792;28;20465;-77
2023/07/19 01:37:28;;;;;;;7.60;4.37;;;21.70;67.30;;;;;;5079507;28;20465;-78
2023/07/19 01:39:56;;;;;;;11.40;4.87;;;21.70;67.40;;;;;;5084659;28;20457;-78
2023/07/19 01:42:26;;;;;;;9.90;4.00;;;21.70;67.40;;;;;;5083500;28;20460;-78
2023/07/19 01:44:55;;;;;;;13.40;4.10;;;21.70;67.30;;;;;;5077788;28;20547;-78
2023/07/19 01:47:24;;;;;;;7.83;3.70;;;21.60;67.40;;;;;;5091745;28;20568;-78
2023/07/19 01:49:53;;;;;;;10.40;4.00;;;21.50;67.30;;;;;;5081049;28;21054;-78
2023/07/19 01:52:21;;;;;;;8.33;3.70;;;21.50;67.30;;;;;;5073564;28;20462;-78
2023/07/19 01:54:49;;;;;;;9.60;4.03;;;21.40;67.40;;;;;;5080333;28;20489;-78
2023/07/19 01:57:17;;;;;;;10.47;3.83;;;21.40;67.40;;;;;;5079697;28;20575;-78
2023/07/19 01:59:47;;;;;;;7.70;3.90;;;21.40;67.40;;;;;;5084308;28;21036;-78
2023/07/19 02:02:14;;;;;;;8.33;4.50;;;21.50;67.40;;;;;;5081834;28;20480;-78
2023/07/19 02:04:43;;;;;;;8.93;4.17;;;21.40;67.40;;;;;;5082324;28;21200;-78
2023/07/19 02:07:11;;;;;;;8.80;4.80;;;21.40;67.30;;;;;;5079571;28;20514;-78
2023/07/19 02:09:40;;;;;;;8.30;4.30;;;21.40;67.30;;;;;;5082939;28;20449;-78
2023/07/19 02:12:09;;;;;;;9.10;4.17;;;21.30;67.30;;;;;;5078040;28;20469;-78
2023/07/19 02:14:37;;;;;;;8.90;4.47;;;21.30;67.30;;;;;;5079632;28;20466;-78
2023/07/19 02:17:07;;;;;;;8.37;4.20;;;21.20;67.30;;;;;;5083824;28;20552;-78
2023/07/19 02:19:35;;;;;;;6.57;3.87;;;21.20;67.30;;;;;;5084507;28;20533;-78
2023/07/19 02:22:03;;;;;;;8.37;4.20;;;21.10;67.40;;;;;;5080592;28;20487;-79
2023/07/19 02:24:31;;;;;;;8.67;4.40;;;21.00;67.40;;;;;;5080712;28;21001;-77
2023/07/19 02:26:59;;;;;;;6.83;3.63;;;21.00;67.40;;;;;;5079189;28;21029;-78
2023/07/19 02:29:27;;;;;;;9.70;4.10;;;20.90;67.50;;;;;;5085010;28;20498;-78
2023/07/19 02:31:56;;;;;;;8.87;3.77;;;20.90;67.50;;;;;;5083631;28;20997;-78
2023/07/19 02:34:25;;;;;;;7.57;3.97;;;20.90;67.60;;;;;;5081327;28;20559;-77
2023/07/19 02:36:53;;;;;;;10.90;3.90;;;20.80;67.60;;;;;;5079913;28;20478;-78
2023/07/19 02:39:21;;;;;;;11.77;3.73;;;20.70;67.70;;;;;;5087363;28;20464;-79
2023/07/19 02:41:49;;;;;;;8.23;4.30;;;20.60;67.80;;;;;;5084376;28;20703;-78
2023/07/19 02:44:17;;;;;;;8.77;3.83;;;20.60;67.90;;;;;;5081434;28;20438;-78
2023/07/19 02:46:45;;;;;;;9.37;4.47;;;20.60;68.00;;;;;;5083682;28;21010;-81
2023/07/19 02:49:13;;;;;;;10.10;4.50;;;20.60;67.90;;;;;;5078451;28;20542;-80
2023/07/19 02:51:42;;;;;;;9.60;4.10;;;20.50;68.00;;;;;;5074637;28;20522;-80
2023/07/19 02:54:10;;;;;;;8.50;4.40;;;20.50;68.10;;;;;;5081362;28;20476;-79
2023/07/19 02:56:38;;;;;;;8.67;4.00;;;20.40;68.10;;;;;;5077504;28;20457;-79
2023/07/19 02:59:06;;;;;;;8.53;3.70;;;20.40;68.20;;;;;;5078440;28;20480;-79
2023/07/19 03:01:36;;;;;;;10.43;3.90;;;20.40;68.20;;;;;;5088788;28;20480;-79
2023/07/19 03:04:06;;;;;;;14.80;4.33;;;20.40;68.30;;;;;;5098848;28;20451;-79
2023/07/19 03:06:34;;;;;;;9.90;4.10;;;20.40;68.20;;;;;;5097235;28;20467;-79
2023/07/19 03:09:06;;;;;;;8.30;3.70;;;20.30;68.30;;;;;;5100348;28;20520;-79
2023/07/19 03:11:36;;;;;;;9.50;4.40;;;20.30;68.40;;;;;;5098495;28;20457;-79
2023/07/19 03:14:04;;;;;;;10.53;4.03;;;20.20;68.50;;;;;;5101428;28;21362;-80
2023/07/19 03:16:32;;;;;;;10.37;4.20;;;20.20;68.50;;;;;;5100476;28;20448;-79
2023/07/19 03:19:00;;;;;;;7.33;4.33;;;20.20;68.50;;;;;;5103741;28;20967;-80
2023/07/19 03:21:29;;;;;;;13.40;4.57;;;20.20;68.50;;;;;;5102513;28;20459;-80
2023/07/19 03:23:57;;;;;;;6.90;3.80;;;20.10;68.50;;;;;;5101182;28;21061;-79
2023/07/19 03:26:27;;;;;;;13.07;4.83;;;20.00;68.60;;;;;;5100075;28;20520;-80
2023/07/19 03:28:55;;;;;;;10.87;4.37;;;20.00;68.70;;;;;;5100214;28;20452;-78
2023/07/19 03:31:23;;;;;;;8.97;4.27;;;20.00;68.90;;;;;;5101307;28;20562;-79
2023/07/19 03:33:51;;;;;;;9.20;4.33;;;20.00;69.00;;;;;;5098980;28;20516;-80
2023/07/19 03:36:19;;;;;;;8.00;4.20;;;19.90;69.10;;;;;;5102051;28;20497;-78
2023/07/19 03:38:48;;;;;;;9.87;4.70;;;19.90;69.10;;;;;;5102372;28;20452;-78
2023/07/19 03:41:16;;;;;;;10.17;4.33;;;19.90;69.20;;;;;;5105789;28;20517;-79
2023/07/19 03:43:46;;;;;;;9.90;4.40;;;19.90;69.30;;;;;;5103566;28;20471;-78
2023/07/19 03:46:15;;;;;;;9.70;4.43;;;19.90;69.40;;;;;;5102681;27;20440;-78
2023/07/19 03:48:44;;;;;;;8.13;4.10;;;20.00;69.30;;;;;;5114517;27;20463;-80
2023/07/19 03:51:12;;;;;;;9.37;4.17;;;20.00;69.30;;;;;;5105416;27;20462;-78
2023/07/19 03:53:40;;;;;;;8.30;4.13;;;20.00;69.30;;;;;;5101293;28;20510;-78
2023/07/19 03:56:08;;;;;;;9.90;4.43;;;20.00;69.30;;;;;;5108324;27;20515;-79
2023/07/19 03:58:38;;;;;;;10.30;4.30;;;20.00;69.40;;;;;;5100987;28;20958;-78
2023/07/19 04:01:08;;;;;;;9.10;4.63;;;20.00;69.50;;;;;;5101816;27;20480;-79
2023/07/19 04:03:36;;;;;;;9.93;4.27;;;19.90;69.60;;;;;;5100821;28;20449;-79
2023/07/19 04:06:07;;;;;;;7.70;4.20;;;19.90;69.60;;;;;;5104903;28;21241;-78
2023/07/19 04:08:35;;;;;;;6.90;4.17;;;19.90;69.60;;;;;;5101406;28;21013;-79
2023/07/19 04:11:03;;;;;;;11.90;4.20;;;19.90;69.70;;;;;;5103082;28;20491;-79
2023/07/19 04:13:31;;;;;;;13.63;4.53;;;19.90;69.80;;;;;;5102592;28;20968;-78
2023/07/19 04:15:59;;;;;;;9.70;4.80;;;19.90;69.80;;;;;;5103629;28;20479;-79
2023/07/19 04:18:28;;;;;;;6.77;4.00;;;19.90;69.80;;;;;;5101211;28;20502;-78
2023/07/19 04:20:57;;;;;;;6.73;3.90;;;19.90;69.90;;;;;;5100140;28;20540;-79
2023/07/19 04:23:25;;;;;;;13.50;4.73;;;20.00;70.00;;;;;;5098029;28;20459;-78
2023/07/19 04:25:53;;;;;;;10.00;4.17;;;20.00;70.00;;;;;;5101372;28;20448;-79
2023/07/19 04:28:22;;;;;;;10.40;4.90;;;20.00;70.00;;;;;;5103400;28;20457;-78
2023/07/19 04:30:50;;;;;;;8.50;4.17;;;20.10;70.00;;;;;;5101783;28;21009;-78
2023/07/19 04:33:20;;;;;;;8.57;4.23;;;20.10;70.00;;;;;;5104928;27;20500;-79
2023/07/19 04:35:50;;;;;;;9.70;4.43;;;20.10;69.90;;;;;;5104863;28;20483;-79
2023/07/19 04:38:18;;;;;;;8.57;4.53;;;20.10;69.90;;;;;;5101345;28;20464;-79
2023/07/19 04:40:46;;;;;;;9.20;4.47;;;20.00;69.90;;;;;;5105085;28;20471;-78
2023/07/19 04:43:15;;;;;;;11.23;4.57;;;20.00;70.00;;;;;;5106840;28;20556;-79
2023/07/19 04:45:45;;;;;;;8.93;4.17;;;20.00;70.10;;;;;;5106573;28;20568;-78
2023/07/19 04:48:15;;;;;;;8.17;4.10;;;20.00;70.30;;;;;;5106603;28;20456;-79
2023/07/19 04:50:43;;;;;;;10.17;4.87;;;20.00;70.40;;;;;;5098507;28;20519;-78
2023/07/19 04:53:13;;;;;;;8.37;4.70;;;20.20;70.50;;;;;;5101578;28;20469;-78
2023/07/19 04:55:43;;;;;;;12.63;3.83;;;20.30;70.50;;;;;;5098620;27;20474;-79
2023/07/19 04:58:12;;;;;;;8.10;4.10;;;20.40;70.60;;;;;;5100671;28;20457;-78
2023/07/19 05:00:41;;;;;;;7.70;3.80;;;20.50;70.60;;;;;;5101888;28;20473;-78
2023/07/19 05:03:09;;;;;;;8.27;4.13;;;20.60;70.70;;;;;;5098840;28;20458;-78
2023/07/19 05:05:37;;;;;;;8.50;4.57;;;20.70;70.60;;;;;;5106014;28;20448;-78
2023/07/19 05:08:06;;;;;;;9.60;4.17;;;20.70;70.50;;;;;;5105124;28;20448;-78
2023/07/19 05:10:37;;;;;;;7.67;4.00;;;20.80;70.40;;;;;;5099328;27;20992;-78
2023/07/19 05:13:05;;;;;;;11.10;4.63;;;20.80;70.30;;;;;;5100172;28;20453;-78
2023/07/19 05:15:34;;;;;;;12.47;4.47;;;20.90;70.40;;;;;;5103956;28;20468;-78
2023/07/19 05:18:04;;;;;;;6.97;4.00;;;20.90;70.30;;;;;;5103723;28;20455;-78
2023/07/19 05:20:32;;;;;;;9.00;4.57;;;21.00;70.30;;;;;;5105059;28;20455;-79
2023/07/19 05:23:00;;;;;;;7.53;4.03;;;21.10;70.40;;;;;;5103670;28;20516;-79
2023/07/19 05:25:28;;;;;;;8.57;4.20;;;21.30;70.40;;;;;;5102904;28;20480;-79
2023/07/19 05:27:58;;;;;;;10.07;4.60;;;21.50;70.30;;;;;;5098733;28;20456;-79
2023/07/19 05:30:26;;;;;;;10.23;4.27;;;21.80;70.00;;;;;;5101488;28;20935;-79
2023/07/19 05:32:54;;;;;;;8.33;4.20;;;22.00;69.90;;;;;;5095348;27;20600;-79
2023/07/19 05:35:22;;;;;;;9.20;4.90;;;22.30;69.80;;;;;;5098292;28;20491;-78
2023/07/19 05:37:51;;;;;;;7.90;3.87;;;22.60;69.50;;;;;;5099900;28;20550;-78
2023/07/19 05:40:19;;;;;;;8.37;4.00;;;23.10;68.90;;;;;;5102180;28;20924;-78
2023/07/19 05:42:48;;;;;;;8.90;4.40;;;23.80;67.80;;;;;;5104648;28;20480;-79
2023/07/19 05:45:18;;;;;;;13.10;4.10;;;24.60;66.30;;;;;;5105520;28;20452;-79
2023/07/19 05:47:46;;;;;;;8.87;3.97;;;25.40;64.90;;;;;;5100377;28;20988;-78
2023/07/19 05:50:14;;;;;;;7.37;4.43;;;26.10;63.80;;;;;;5102475;28;20544;-78
2023/07/19 05:52:42;;;;;;;12.23;4.17;;;26.70;62.90;;;;;;5099067;27;20488;-78
2023/07/19 05:55:10;;;;;;;11.60;4.57;;;27.50;62.00;;;;;;5099897;28;20498;-79
2023/07/19 05:57:39;;;;;;;8.37;4.87;;;28.20;61.10;;;;;;5103919;28;20472;-79
2023/07/19 06:00:13;;;;;;;10.53;4.63;;;28.80;60.10;;;;;;5098314;28;20463;-79
2023/07/19 06:02:50;;;;;;;10.07;4.50;;;29.40;59.10;;;;;;5102480;28;20463;-80
2023/07/19 06:05:24;;;;;;;10.47;4.70;;;30.00;58.10;;;;;;5100458;28;20454;-79
2023/07/19 06:07:54;;;;;;;10.73;4.47;;;30.50;57.20;;;;;;5104646;28;20448;-78
2023/07/19 06:10:26;;;;;;;9.13;4.30;;;31.00;56.20;;;;;;5102972;28;20451;-79
2023/07/19 06:12:54;;;;;;;9.70;4.03;;;31.40;55.10;;;;;;5097913;28;20465;-79
2023/07/19 06:15:22;;;;;;;10.47;4.67;;;31.80;54.20;;;;;;5098892;28;20455;-80
2023/07/19 06:17:53;;;;;;;12.00;4.23;;;32.20;53.30;;;;;;5101290;28;20490;-80
2023/07/19 06:20:22;;;;;;;7.20;3.77;;;32.50;52.40;;;;;;5100639;28;20448;-78
2023/07/19 06:22:50;;;;;;;7.43;4.00;;;32.70;51.80;;;;;;5101706;28;21017;-79
2023/07/19 06:25:18;;;;;;;12.60;4.87;;;32.50;51.30;;;;;;5096645;28;20461;-80
2023/07/19 06:27:47;;;;;;;7.20;4.30;;;32.00;51.50;;;;;;5099777;28;20486;-78
2023/07/19 06:30:15;;;;;;;8.40;4.60;;;31.20;51.60;;;;;;5105607;28;20483;-79
2023/07/19 06:32:43;;;;;;;8.80;4.70;;;30.20;52.00;;;;;;5102129;28;20452;-80
2023/07/19 06:35:12;;;;;;;7.20;3.90;;;29.20;52.60;;;;;;5105106;28;21008;-79
2023/07/19 06:37:40;;;;;;;12.60;4.37;;;28.20;53.70;;;;;;5098076;28;20482;-79
2023/07/19 06:40:09;;;;;;;7.80;4.60;;;27.30;54.60;;;;;;5099691;28;20465;-79
2023/07/19 06:42:37;;;;;;;9.10;4.70;;;26.60;55.70;;;;;;5100479;28;20456;-79
2023/07/19 06:45:07;;;;;;;10.53;4.30;;;26.00;56.40;;;;;;5102639;27;20457;-79
2023/07/19 06:47:36;;;;;;;11.87;4.33;;;25.50;57.20;;;;;;5101871;28;20456;-79
2023/07/19 06:50:05;;;;;;;8.60;4.40;;;25.10;57.70;;;;;;5095110;28;20473;-79
2023/07/19 06:52:35;;;;;;;6.90;4.03;;;24.90;58.00;;;;;;5099314;28;20539;-79
2023/07/19 06:55:03;;;;;;;8.10;3.57;;;24.70;58.20;;;;;;5098479;28;20459;-79
2023/07/19 06:57:32;;;;;;;8.30;4.10;;;24.50;58.40;;;;;;5098145;28;20567;-78
2023/07/19 07:00:00;;;;;;;7.50;3.73;;;24.40;58.60;;;;;;5101011;28;21295;-79
2023/07/19 07:02:28;;;;;;;7.67;3.70;;;24.30;58.80;;;;;;5098308;28;20481;-78
2023/07/19 07:04:56;;;;;;;8.87;4.00;;;24.30;59.00;;;;;;5099279;28;20467;-79
2023/07/19 07:07:24;;;;;;;6.40;3.60;;;24.20;59.20;;;;;;5099643;28;20531;-78
2023/07/19 07:09:54;;;;;;;8.73;4.60;;;24.20;59.40;;;;;;5097800;28;20485;-79
2023/07/19 07:12:22;;;;;;;6.60;3.63;;;24.10;59.70;;;;;;5096530;28;20456;-79
2023/07/19 07:14:50;;;;;;;10.77;4.17;;;24.10;59.90;;;;;;5104717;28;20452;-78
2023/07/19 07:17:18;;;;;;;10.70;4.50;;;24.00;60.20;;;;;;5102923;28;20610;-78
2023/07/19 07:19:48;;;;;;;7.93;4.87;;;24.00;60.40;;;;;;5104455;28;20958;-79
2023/07/19 07:22:17;;;;;;;9.50;4.10;;;24.00;60.50;;;;;;5106190;28;20470;-80
2023/07/19 07:24:44;;;;;;;9.30;4.80;;;23.90;60.80;;;;;;5103439;28;20466;-79
2023/07/19 07:27:14;;;;;;;9.50;4.83;;;23.90;61.00;;;;;;5101364;28;20454;-77
2023/07/19 07:29:43;;;;;;;11.03;4.17;;;23.90;61.20;;;;;;5106794;28;20534;-78
2023/07/19 07:32:11;;;;;;;10.10;4.50;;;24.00;61.30;;;;;;5100665;28;20575;-79
2023/07/19 07:34:39;;;;;;;9.67;3.97;;;24.00;61.40;;;;;;5099264;28;20483;-79
2023/07/19 07:37:08;;;;;;;7.37;4.43;;;24.00;61.50;;;;;;5097696;28;20483;-80
2023/07/19 07:39:36;;;;;;;10.50;5.10;;;24.00;61.70;;;;;;5103740;28;20957;-79
2023/07/19 07:42:06;;;;;;;10.87;5.00;;;24.10;61.80;;;;;;5097552;27;20503;-79
2023/07/19 07:44:36;;;;;;;10.00;4.90;;;24.10;61.80;;;;;;5102822;28;20456;-79
2023/07/19 07:47:04;;;;;;;10.70;4.40;;;24.10;61.70;;;;;;5096538;28;20452;-79
2023/07/19 07:49:32;;;;;;;8.93;4.70;;;24.10;61.70;;;;;;5106937;28;20444;-79
2023/07/19 07:52:00;;;;;;;7.37;4.63;;;24.20;61.60;;;;;;5105232;28;20548;-79
2023/07/19 07:54:28;;;;;;;8.80;4.23;;;24.10;61.60;;;;;;5100980;28;20448;-78
2023/07/19 07:56:57;;;;;;;8.10;4.10;;;24.20;61.50;;;;;;5101830;28;20472;-79
2023/07/19 07:59:25;;;;;;;8.30;3.93;;;24.20;61.40;;;;;;5099923;28;20586;-79
2023/07/19 08:01:55;;;;;;;9.30;5.20;;;24.30;61.30;;;;;;5097203;28;20493;-79
2023/07/19 08:04:22;;;;;;;12.10;4.50;;;24.30;61.20;;;;;;5102195;28;20455;-79
2023/07/19 08:06:53;;;;;;;8.87;4.20;;;24.40;61.10;;;;;;5095995;28;21019;-78
2023/07/19 08:09:21;;;;;;;7.97;3.93;;;24.40;61.10;;;;;;5105150;28;20550;-78
2023/07/19 08:11:50;;;;;;;11.80;4.40;;;24.50;61.20;;;;;;5102398;28;20989;-79
2023/07/19 08:14:19;;;;;;;8.60;4.13;;;24.50;61.20;;;;;;5105612;28;20777;-79
2023/07/19 08:16:49;;;;;;;12.60;4.70;;;24.50;61.10;;;;;;5097255;28;20965;-78
2023/07/19 08:19:20;;;;;;;8.93;4.17;;;24.60;61.00;;;;;;5100370;28;21273;-79
2023/07/19 08:21:49;;;;;;;10.23;5.00;;;24.60;60.90;;;;;;5101576;28;21846;-79
2023/07/19 08:24:17;;;;;;;9.57;4.87;;;24.70;60.80;;;;;;5106100;28;20491;-78
2023/07/19 08:26:46;;;;;;;12.27;5.00;;;24.70;60.80;;;;;;5098563;27;20488;-78
2023/07/19 08:29:15;;;;;;;9.80;5.00;;;24.70;60.80;;;;;;5105268;28;21200;-79
2023/07/19 08:31:43;;;;;;;14.43;4.10;;;24.60;60.70;;;;;;5102448;28;20475;-79
2023/07/19 08:34:11;;;;;;;9.83;4.40;;;24.70;60.60;;;;;;5107370;28;20818;-78
2023/07/19 08:36:40;;;;;;;14.97;4.80;;;24.80;60.70;;;;;;5098966;28;20547;-78
2023/07/19 08:39:08;;;;;;;10.10;4.27;;;24.80;60.70;;;;;;5100288;28;20491;-78
2023/07/19 08:41:36;;;;;;;8.47;3.70;;;24.90;60.50;;;;;;5099179;28;20461;-79
2023/07/19 08:44:05;;;;;;;8.50;4.07;;;24.90;60.30;;;;;;5102214;28;20472;-78
2023/07/19 08:46:34;;;;;;;8.40;4.33;;;25.00;60.20;;;;;;5096849;27;20452;-79
2023/07/19 08:49:02;;;;;;;10.40;4.17;;;25.00;60.10;;;;;;5099808;28;20558;-79
2023/07/19 08:51:32;;;;;;;8.83;4.20;;;25.00;59.80;;;;;;5105174;28;20436;-80
2023/07/19 08:54:02;;;;;;;9.43;3.97;;;25.00;59.60;;;;;;5103642;28;20484;-79
2023/07/19 08:56:31;;;;;;;9.40;4.00;;;25.10;59.30;;;;;;5098753;28;20511;-78
2023/07/19 08:58:59;;;;;;;11.20;3.90;;;25.20;59.30;;;;;;5102411;28;20997;-78
2023/07/19 09:01:27;;;;;;;6.93;3.50;;;25.30;59.10;;;;;;5103128;27;20526;-79
2023/07/19 09:03:55;;;;;;;11.23;3.80;;;25.30;58.70;;;;;;5107055;28;20532;-79
2023/07/19 09:06:24;;;;;;;9.13;4.13;;;25.30;58.50;;;;;;5097057;28;20456;-79
2023/07/19 09:08:55;;;;;;;7.03;3.80;;;25.40;58.30;;;;;;5106481;28;20445;-79
2023/07/19 09:11:25;;;;;;;8.60;3.67;;;25.50;58.10;;;;;;5104351;28;20474;-79
2023/07/19 09:13:54;;;;;;;11.20;3.80;;;25.50;57.70;;;;;;5098430;28;20570;-79
2023/07/19 09:16:30;;;;;;;7.37;3.63;;;25.50;57.50;;;;;;5104081;27;20546;-78
2023/07/19 09:19:00;;;;;;;9.47;3.30;;;25.60;57.30;;;;;;5098993;28;20491;-79
2023/07/19 09:21:33;;;;;;;7.90;3.10;;;25.60;57.10;;;;;;5104433;28;20451;-79
2023/07/19 09:24:04;;;;;;;8.07;3.33;;;25.70;56.90;;;;;;5098273;28;20563;-79
2023/07/19 09:26:48;;;;;;;9.77;2.97;;;25.80;56.60;;;;;;5098123;28;20496;-77
2023/07/19 09:29:17;;;;;;;10.63;2.87;;;25.70;55.90;;;;;;5105509;28;20448;-78
2023/07/19 09:31:55;;;;;;;7.00;2.90;;;25.70;55.70;;;;;;5102838;28;20499;-78
2023/07/19 09:34:27;;;;;;;5.53;2.67;;;25.80;55.60;;;;;;5100625;27;20460;-79
2023/07/19 09:36:55;;;;;;;12.97;3.20;;;25.80;55.30;;;;;;5100608;28;20482;-78
2023/07/19 09:39:23;;;;;;;6.50;3.37;;;25.90;55.10;;;;;;5102992;28;20478;-78
2023/07/19 09:41:54;;;;;;;5.83;2.90;;;26.00;55.00;;;;;;5098871;28;20449;-79
2023/07/19 09:44:23;;;;;;;6.93;3.30;;;26.00;54.70;;;;;;5100888;28;20842;-79
2023/07/19 09:46:54;;;;;;;6.63;2.80;;;26.10;54.60;;;;;;5118714;27;20539;-78
2023/07/19 09:49:22;;;;;;;6.23;2.60;;;26.10;54.50;;;;;;5105532;28;20570;-79
2023/07/19 09:51:50;;;;;;;7.97;3.00;;;26.20;54.50;;;;;;5093339;28;22140;-78
2023/07/19 09:54:20;;;;;;;6.33;2.93;;;26.20;54.20;;;;;;5102010;28;20471;-79
2023/07/19 09:56:48;;;;;;;5.47;2.57;;;26.30;54.20;;;;;;5096155;28;20474;-79
2023/07/19 09:59:21;;;;;;;8.80;2.73;;;26.40;54.10;;;;;;5093757;28;20479;-77
2023/07/19 10:01:50;;;;;;;8.30;2.50;;;26.40;53.80;;;;;;5092699;28;20627;-78
2023/07/19 10:04:23;;;;;;;5.50;2.67;;;26.50;53.20;;;;;;5099452;28;20559;-79
2023/07/19 10:07:04;;;;;;;7.70;3.07;;;26.50;53.10;;;;;;5106417;27;20548;-79
2023/07/19 10:09:38;;;;;;;9.63;2.70;;;26.50;53.00;;;;;;5096040;28;21073;-79
2023/07/19 10:12:23;;;;;;;6.57;2.83;;;26.60;52.90;;;;;;5099712;28;20448;-79
2023/07/19 10:14:57;;;;;;;5.67;2.63;;;26.60;52.60;;;;;;5101171;28;20462;-79
2023/07/19 10:17:25;;;;;;;6.57;3.10;;;26.60;52.30;;;;;;5095531;28;20466;-78
2023/07/19 10:20:14;;;;;;;9.37;2.73;;;26.60;52.10;;;;;;5097509;28;20471;-78
2023/07/19 10:22:50;;;;;;;6.90;3.23;;;26.60;51.50;;;;;;5104567;27;20471;-78
2023/07/19 10:25:22;;;;;;;11.23;2.80;;;26.60;51.60;;;;;;5101907;28;20488;-78
2023/07/19 10:27:57;;;;;;;7.80;2.83;;;26.60;51.50;;;;;;5103433;28;20452;-79
2023/07/19 10:30:52;;;;;;;6.30;2.97;;;26.70;51.50;;;;;;5100016;28;20554;-79
2023/07/19 10:33:23;;;;;;;7.40;2.40;;;26.80;51.60;;;;;;5103517;28;20543;-78
2023/07/19 10:35:52;;;;;;;6.43;2.70;;;26.80;51.50;;;;;;5099034;28;20669;-79
2023/07/19 10:38:22;;;;;;;7.73;2.80;;;26.80;51.30;;;;;;5098438;28;20558;-79
2023/07/19 10:40:57;;;;;;;11.23;3.33;;;26.70;51.10;;;;;;5104837;28;20987;-78
2023/07/19 10:43:26;;;;;;;8.23;3.30;;;26.70;51.00;;;;;;5100744;28;20463;-79
2023/07/19 10:46:15;;;;;;;7.73;3.07;;;26.70;51.20;;;;;;5103644;28;20467;-79
2023/07/19 10:48:43;;;;;;;8.77;2.93;;;26.80;51.30;;;;;;5114327;27;20492;-79
2023/07/19 10:51:11;;;;;;;7.33;3.23;;;26.80;51.20;;;;;;5092965;28;20526;-79
2023/07/19 10:53:43;;;;;;;10.20;2.87;;;26.90;50.90;;;;;;5098500;28;20524;-79
2023/07/19 10:56:13;;;;;;;6.47;3.33;;;27.00;51.10;;;;;;5095307;28;20502;-79
2023/07/19 10:58:42;;;;;;;7.70;3.03;;;27.10;51.30;;;;;;5097849;28;20507;-79
2023/07/19 11:01:10;;;;;;;6.50;2.67;;;27.20;51.10;;;;;;5097321;28;20508;-79
2023/07/19 11:03:45;;;;;;;5.70;2.80;;;27.20;50.70;;;;;;5099678;28;20514;-79
2023/07/19 11:06:13;;;;;;;5.83;2.50;;;27.30;50.80;;;;;;5098425;28;20486;-79
2023/07/19 11:08:44;;;;;;;8.27;2.67;;;27.40;50.50;;;;;;5095929;28;20449;-78
2023/07/19 11:11:13;;;;;;;7.30;3.20;;;27.40;50.40;;;;;;5103259;28;20507;-79
2023/07/19 11:13:42;;;;;;;6.23;2.57;;;27.50;49.80;;;;;;5094881;28;20957;-78
2023/07/19 11:16:11;;;;;;;7.33;2.50;;;27.60;49.90;;;;;;5102022;28;20532;-78
2023/07/19 11:18:41;;;;;;;6.23;2.60;;;27.70;49.60;;;;;;5099508;28;20473;-78
2023/07/19 11:21:10;;;;;;;6.10;3.10;;;27.70;49.40;;;;;;5098730;28;20535;-78
2023/07/19 11:23:41;;;;;;;6.77;3.03;;;27.80;49.50;;;;;;5104255;28;20453;-78
2023/07/19 11:26:12;;;;;;;8.03;3.03;;;27.80;49.50;;;;;;5102446;28;20463;-79
2023/07/19 11:28:44;;;;;;;9.00;3.20;;;27.90;49.50;;;;;;5100065;28;20879;-78
2023/07/19 11:31:28;;;;;;;8.03;2.97;;;28.00;49.50;;;;;;5100087;28;20985;-77
2023/07/19 11:34:06;;;;;;;7.80;3.00;;;28.10;49.50;;;;;;5098945;28;20464;-78
2023/07/19 11:36:34;;;;;;;6.57;3.10;;;28.20;49.50;;;;;;5097083;28;20564;-78
2023/07/19 11:39:03;;;;;;;8.23;3.07;;;28.20;49.60;;;;;;5100300;28;20887;-78
2023/07/19 11:41:31;;;;;;;8.43;3.10;;;28.20;49.60;;;;;;5097239;28;20461;-78
2023/07/19 11:44:00;;;;;;;8.37;2.80;;;28.20;49.60;;;;;;5094545;28;20527;-78
2023/07/19 11:46:28;;;;;;;7.27;2.80;;;28.20;49.70;;;;;;5096619;28;20449;-78
2023/07/19 11:48:56;;;;;;;10.90;2.73;;;28.20;49.50;;;;;;5101912;28;20807;-78
2023/07/19 11:51:27;;;;;;;9.43;3.17;;;28.20;49.40;;;;;;5102230;28;20960;-78
2023/07/19 11:53:56;;;;;;;7.10;2.30;;;28.10;49.50;;;;;;5098910;28;20439;-78
2023/07/19 11:56:24;;;;;;;7.93;2.67;;;28.10;49.70;;;;;;5099294;28;21293;-78
2023/07/19 11:58:56;;;;;;;7.40;2.60;;;28.10;49.80;;;;;;5096706;28;21149;-77
2023/07/19 12:01:24;;;;;;;6.20;2.80;;;28.10;49.80;;;;;;5101815;28;20681;-78
2023/07/19 12:03:52;;;;;;;7.87;2.90;;;28.10;49.80;;;;;;5100590;28;20790;-78
2023/07/19 12:06:20;;;;;;;6.27;3.00;;;28.00;49.60;;;;;;5102971;28;20447;-78
2023/07/19 12:08:50;;;;;;;8.20;2.87;;;27.90;49.60;;;;;;5108879;28;20475;-78
2023/07/19 12:11:18;;;;;;;8.07;2.80;;;27.90;49.50;;;;;;5102599;28;20917;-78
2023/07/19 12:13:47;;;;;;;7.57;3.47;;;27.90;49.60;;;;;;5101595;28;20819;-79
2023/07/19 12:16:16;;;;;;;5.87;2.63;;;28.10;49.60;;;;;;5100477;28;20456;-79
2023/07/19 12:18:45;;;;;;;6.57;2.53;;;28.10;49.50;;;;;;5104568;28;20451;-79
2023/07/19 12:21:13;;;;;;;7.70;2.53;;;28.10;49.60;;;;;;5102838;28;20495;-78
2023/07/19 12:23:42;;;;;;;5.20;2.23;;;28.20;49.80;;;;;;5099641;28;20499;-79
2023/07/19 12:26:26;;;;;;;6.93;2.93;;;28.30;50.00;;;;;;5098255;28;20463;-78
2023/07/19 12:28:57;;;;;;;7.73;2.70;;;28.40;49.60;;;;;;5101236;27;20447;-79
2023/07/19 12:31:26;;;;;;;7.40;3.07;;;28.40;49.10;;;;;;5100972;28;20517;-79
2023/07/19 12:33:56;;;;;;;10.50;2.60;;;28.40;49.00;;;;;;5100253;28;20547;-79
2023/07/19 12:44:26;;;;;;;13.33;3.07;;;28.40;48.80;;;;;;5094252;28;20558;-80
2023/07/19 12:46:55;;;;;;;5.83;2.73;;;28.40;48.90;;;;;;5097712;28;20455;-79
2023/07/19 12:49:23;;;;;;;7.73;2.70;;;28.30;48.90;;;;;;5101528;27;20460;-79
2023/07/19 12:51:51;;;;;;;7.43;2.60;;;28.20;48.90;;;;;;5099571;28;20823;-78
2023/07/19 12:54:19;;;;;;;6.57;2.37;;;28.10;48.90;;;;;;5101308;28;21147;-79
2023/07/19 12:56:47;;;;;;;7.93;2.90;;;28.00;49.00;;;;;;5102695;28;20460;-79
2023/07/19 12:59:15;;;;;;;5.90;2.70;;;28.00;49.20;;;;;;5097498;28;20456;-78
2023/07/19 13:01:45;;;;;;;6.53;2.83;;;27.90;49.20;;;;;;5096998;28;21020;-78